createdAt,value
2019-03-09T00:00:13.759Z,0.00
2019-03-09T00:01:13.773Z,0.00
2019-03-09T00:02:13.748Z,0.00
2019-03-09T00:03:13.741Z,0.00
2019-03-09T00:04:13.716Z,0.00
2019-03-09T00:05:13.720Z,0.00
2019-03-09T00:06:13.721Z,0.00
2019-03-09T00:07:13.717Z,0.00
2019-03-09T00:08:13.674Z,0.00
2019-03-09T00:09:13.677Z,0.00
2019-03-09T00:10:13.650Z,0.00
2019-03-09T00:11:13.649Z,0.00
2019-03-09T00:12:13.652Z,0.00
2019-03-09T00:13:13.618Z,0.00
2019-03-09T00:14:13.625Z,0.00
2019-03-09T00:15:13.620Z,0.00
2019-03-09T00:16:13.590Z,0.00
2019-03-09T00:17:13.619Z,0.00
2019-03-09T00:18:13.563Z,0.00
2019-03-09T00:19:13.556Z,0.00
2019-03-09T00:20:13.550Z,0.00
2019-03-09T00:21:13.533Z,0.00
2019-03-09T00:22:13.575Z,0.00
2019-03-09T00:23:13.561Z,0.00
2019-03-09T00:24:13.509Z,0.00
2019-03-09T00:25:13.500Z,0.00
2019-03-09T00:26:13.478Z,0.00
2019-03-09T00:27:13.505Z,0.00
2019-03-09T00:28:13.453Z,0.00
2019-03-09T00:29:13.446Z,0.00
2019-03-09T00:30:13.435Z,0.00
2019-03-09T00:31:13.428Z,0.00
2019-03-09T00:32:13.430Z,0.00
2019-03-09T00:33:13.412Z,0.00
2019-03-09T00:34:13.420Z,0.00
2019-03-09T00:35:13.398Z,0.00
2019-03-09T00:36:13.380Z,0.00
2019-03-09T00:37:13.386Z,0.00
2019-03-09T00:38:13.363Z,0.00
2019-03-09T00:39:13.351Z,0.00
2019-03-09T00:40:13.328Z,0.00
2019-03-09T00:41:13.324Z,0.00
2019-03-09T00:42:13.319Z,0.00
2019-03-09T00:43:13.310Z,0.00
2019-03-09T00:44:13.287Z,0.00
2019-03-09T00:45:13.272Z,0.00
2019-03-09T00:46:13.265Z,0.00
2019-03-09T00:47:13.277Z,0.00
2019-03-09T00:48:13.259Z,0.00
2019-03-09T00:49:13.239Z,0.00
2019-03-09T00:50:13.221Z,0.00
2019-03-09T00:51:13.249Z,0.00
2019-03-09T00:52:13.227Z,0.00
2019-03-09T00:53:13.215Z,0.00
2019-03-09T00:54:15.116Z,0.00
2019-03-09T00:55:13.174Z,0.00
2019-03-09T00:56:13.189Z,0.00
2019-03-09T00:57:13.172Z,0.00
2019-03-09T00:58:13.151Z,0.00
2019-03-09T00:59:13.129Z,0.00
2019-03-09T01:00:13.113Z,0.00
2019-03-09T01:01:13.129Z,0.00
2019-03-09T01:02:13.116Z,0.00
2019-03-09T01:03:13.079Z,0.00
2019-03-09T01:04:13.066Z,0.00
2019-03-09T01:05:13.074Z,0.00
2019-03-09T01:06:13.087Z,0.00
2019-03-09T01:07:13.036Z,0.00
2019-03-09T01:08:13.038Z,0.00
2019-03-09T01:09:13.015Z,0.00
2019-03-09T01:10:13.003Z,0.00
2019-03-09T01:11:13.010Z,0.00
2019-03-09T01:12:12.989Z,0.00
2019-03-09T01:13:13.012Z,0.00
2019-03-09T01:14:12.960Z,0.00
2019-03-09T01:15:12.972Z,0.00
2019-03-09T01:16:12.971Z,0.00
2019-03-09T01:17:12.927Z,0.00
2019-03-09T01:18:13.006Z,0.00
2019-03-09T01:19:12.912Z,0.00
2019-03-09T01:20:12.901Z,0.00
2019-03-09T01:21:12.882Z,0.00
2019-03-09T01:22:12.904Z,0.00
2019-03-09T01:23:12.872Z,0.00
2019-03-09T01:24:12.851Z,0.00
2019-03-09T01:25:12.839Z,0.00
2019-03-09T01:26:12.836Z,0.00
2019-03-09T01:27:12.820Z,0.00
2019-03-09T01:28:12.853Z,0.00
2019-03-09T01:29:12.799Z,0.00
2019-03-09T01:30:12.788Z,0.00
2019-03-09T01:31:12.785Z,0.00
2019-03-09T01:32:12.763Z,0.00
2019-03-09T01:33:12.762Z,0.00
2019-03-09T01:34:12.759Z,0.00
2019-03-09T01:35:12.729Z,0.00
2019-03-09T01:36:12.745Z,0.00
2019-03-09T01:37:12.719Z,0.00
2019-03-09T01:38:12.714Z,0.00
2019-03-09T01:39:12.691Z,0.00
2019-03-09T01:40:12.694Z,0.00
2019-03-09T01:41:12.689Z,0.00
2019-03-09T01:42:12.660Z,0.00
2019-03-09T01:43:12.679Z,0.00
2019-03-09T01:44:12.695Z,0.00
2019-03-09T01:45:12.638Z,0.00
2019-03-09T01:46:12.659Z,0.00
2019-03-09T01:47:12.617Z,0.00
2019-03-09T01:48:12.635Z,0.00
2019-03-09T01:49:12.591Z,0.00
2019-03-09T01:50:12.576Z,0.00
2019-03-09T01:51:12.577Z,0.00
2019-03-09T01:52:12.565Z,0.00
2019-03-09T01:53:12.567Z,0.00
2019-03-09T01:54:12.545Z,0.00
2019-03-09T01:55:12.515Z,0.00
2019-03-09T01:56:12.507Z,0.00
2019-03-09T01:57:12.506Z,0.00
2019-03-09T01:58:12.497Z,0.00
2019-03-09T01:59:12.522Z,0.00
2019-03-09T02:00:12.487Z,0.00
2019-03-09T02:01:12.462Z,0.00
2019-03-09T02:02:12.453Z,0.00
2019-03-09T02:03:12.451Z,0.00
2019-03-09T02:04:12.422Z,0.00
2019-03-09T02:05:12.430Z,0.00
2019-03-09T02:06:12.428Z,0.00
2019-03-09T02:07:12.393Z,0.00
2019-03-09T02:08:12.387Z,0.00
2019-03-09T02:09:12.379Z,0.00
2019-03-09T02:10:12.386Z,0.00
2019-03-09T02:11:12.346Z,0.00
2019-03-09T02:12:12.354Z,0.00
2019-03-09T02:13:12.374Z,0.00
2019-03-09T02:14:12.321Z,0.00
2019-03-09T02:15:12.307Z,0.00
2019-03-09T02:16:12.293Z,0.00
2019-03-09T02:17:12.275Z,0.00
2019-03-09T02:18:12.279Z,0.00
2019-03-09T02:19:12.281Z,0.00
2019-03-09T02:20:12.285Z,0.00
2019-03-09T02:21:12.234Z,0.00
2019-03-09T02:22:12.222Z,0.00
2019-03-09T02:23:12.235Z,0.00
2019-03-09T02:24:12.223Z,0.00
2019-03-09T02:25:12.212Z,0.00
2019-03-09T02:26:12.198Z,0.00
2019-03-09T02:27:12.207Z,0.00
2019-03-09T02:28:12.188Z,0.00
2019-03-09T02:29:12.174Z,0.00
2019-03-09T02:30:12.139Z,0.00
2019-03-09T02:31:12.130Z,0.00
2019-03-09T02:32:12.114Z,0.00
2019-03-09T02:33:12.118Z,0.00
2019-03-09T02:34:12.122Z,0.00
2019-03-09T02:35:12.093Z,0.00
2019-03-09T02:36:12.081Z,0.00
2019-03-09T02:37:12.071Z,0.00
2019-03-09T02:38:12.057Z,0.00
2019-03-09T02:39:12.068Z,0.00
2019-03-09T02:40:12.048Z,0.00
2019-03-09T02:41:12.040Z,0.00
2019-03-09T02:42:12.018Z,0.00
2019-03-09T02:43:12.047Z,0.00
2019-03-09T02:44:12.074Z,0.00
2019-03-09T02:45:11.977Z,0.00
2019-03-09T02:46:11.985Z,0.00
2019-03-09T02:47:11.954Z,0.00
2019-03-09T02:48:11.968Z,0.00
2019-03-09T02:49:11.968Z,0.00
2019-03-09T02:50:11.968Z,0.00
2019-03-09T02:51:11.917Z,0.00
2019-03-09T02:52:11.922Z,0.00
2019-03-09T02:53:11.932Z,0.00
2019-03-09T02:54:11.900Z,0.00
2019-03-09T02:55:11.866Z,0.00
2019-03-09T02:56:11.870Z,0.00
2019-03-09T02:57:11.853Z,0.00
2019-03-09T02:58:11.880Z,0.00
2019-03-09T02:59:11.841Z,0.00
2019-03-09T03:00:11.861Z,0.00
2019-03-09T03:01:11.829Z,0.00
2019-03-09T03:02:11.802Z,0.00
2019-03-09T03:03:11.815Z,0.00
2019-03-09T03:04:11.799Z,0.00
2019-03-09T03:05:11.792Z,0.00
2019-03-09T03:06:11.758Z,0.00
2019-03-09T03:07:11.739Z,0.00
2019-03-09T03:08:11.738Z,0.00
2019-03-09T03:09:11.748Z,0.00
2019-03-09T03:10:11.727Z,0.00
2019-03-09T03:11:11.728Z,0.00
2019-03-09T03:12:11.701Z,0.00
2019-03-09T03:13:11.679Z,0.00
2019-03-09T03:14:11.682Z,0.00
2019-03-09T03:15:11.659Z,0.00
2019-03-09T03:16:11.673Z,0.00
2019-03-09T03:17:11.680Z,0.00
2019-03-09T03:18:11.626Z,0.00
2019-03-09T03:19:11.629Z,0.00
2019-03-09T03:20:11.616Z,0.00
2019-03-09T03:21:11.585Z,0.00
2019-03-09T03:22:11.582Z,0.00
2019-03-09T03:23:11.564Z,0.00
2019-03-09T03:24:11.584Z,0.00
2019-03-09T03:25:11.580Z,0.00
2019-03-09T03:26:11.572Z,0.00
2019-03-09T03:27:11.540Z,0.00
2019-03-09T03:28:11.513Z,0.00
2019-03-09T03:29:11.521Z,0.00
2019-03-09T03:30:11.567Z,0.00
2019-03-09T03:31:11.501Z,0.00
2019-03-09T03:32:11.495Z,0.00
2019-03-09T03:33:11.464Z,0.00
2019-03-09T03:34:11.490Z,0.00
2019-03-09T03:35:11.452Z,0.00
2019-03-09T03:36:11.455Z,0.00
2019-03-09T03:37:11.436Z,0.00
2019-03-09T03:38:11.419Z,0.00
2019-03-09T03:39:11.408Z,0.00
2019-03-09T03:40:11.384Z,0.00
2019-03-09T03:41:11.386Z,0.00
2019-03-09T03:42:11.368Z,0.00
2019-03-09T03:43:11.357Z,0.00
2019-03-09T03:44:11.376Z,0.00
2019-03-09T03:45:11.337Z,0.00
2019-03-09T03:46:11.324Z,0.00
2019-03-09T03:47:11.316Z,0.00
2019-03-09T03:48:11.319Z,0.00
2019-03-09T03:49:11.315Z,0.00
2019-03-09T03:50:11.284Z,0.00
2019-03-09T03:51:11.327Z,0.00
2019-03-09T03:52:11.290Z,0.00
2019-03-09T03:53:11.242Z,0.00
2019-03-09T03:54:11.263Z,0.00
2019-03-09T03:55:11.224Z,0.00
2019-03-09T03:56:11.219Z,0.00
2019-03-09T03:57:11.204Z,0.00
2019-03-09T03:58:11.224Z,0.00
2019-03-09T03:59:11.186Z,0.00
2019-03-09T04:00:11.217Z,0.00
2019-03-09T04:01:11.155Z,0.00
2019-03-09T04:02:11.165Z,0.00
2019-03-09T04:03:11.183Z,0.00
2019-03-09T04:04:11.125Z,0.00
2019-03-09T04:05:11.223Z,0.00
2019-03-09T04:06:11.128Z,0.00
2019-03-09T04:07:11.112Z,0.00
2019-03-09T04:08:11.152Z,0.00
2019-03-09T04:09:11.108Z,0.00
2019-03-09T04:10:11.072Z,0.00
2019-03-09T04:11:11.066Z,0.00
2019-03-09T04:12:11.062Z,0.00
2019-03-09T04:13:11.037Z,0.00
2019-03-09T04:14:11.033Z,0.00
2019-03-09T04:15:11.070Z,0.00
2019-03-09T04:16:11.017Z,0.00
2019-03-09T04:17:11.003Z,0.00
2019-03-09T04:18:10.975Z,0.00
2019-03-09T04:19:10.966Z,0.00
2019-03-09T04:20:10.975Z,0.00
2019-03-09T04:21:11.015Z,0.00
2019-03-09T04:22:10.964Z,0.00
2019-03-09T04:23:10.923Z,0.00
2019-03-09T04:24:10.922Z,0.00
2019-03-09T04:25:10.949Z,0.00
2019-03-09T04:26:10.893Z,0.00
2019-03-09T04:27:10.886Z,0.00
2019-03-09T04:28:10.879Z,0.00
2019-03-09T04:29:10.860Z,0.00
2019-03-09T04:30:10.912Z,0.00
2019-03-09T04:31:10.841Z,0.00
2019-03-09T04:32:10.858Z,0.00
2019-03-09T04:33:10.814Z,0.00
2019-03-09T04:34:10.822Z,0.00
2019-03-09T04:35:10.828Z,0.00
2019-03-09T04:36:10.805Z,0.00
2019-03-09T04:37:10.793Z,0.00
2019-03-09T04:38:10.770Z,0.00
2019-03-09T04:39:10.764Z,0.00
2019-03-09T04:40:10.762Z,0.00
2019-03-09T04:41:10.745Z,0.00
2019-03-09T04:42:10.730Z,0.00
2019-03-09T04:43:10.743Z,0.00
2019-03-09T04:44:10.739Z,0.00
2019-03-09T04:45:10.731Z,0.00
2019-03-09T04:46:10.696Z,0.00
2019-03-09T04:47:10.672Z,0.00
2019-03-09T04:48:10.691Z,0.00
2019-03-09T04:49:10.654Z,0.00
2019-03-09T04:50:10.646Z,0.00
2019-03-09T04:51:10.627Z,0.00
2019-03-09T04:52:10.619Z,0.00
2019-03-09T04:53:10.601Z,0.00
2019-03-09T04:54:10.639Z,0.00
2019-03-09T04:55:10.592Z,0.00
2019-03-09T04:56:10.577Z,0.00
2019-03-09T04:57:10.588Z,0.00
2019-03-09T04:58:10.546Z,0.00
2019-03-09T04:59:10.551Z,0.00
2019-03-09T05:00:10.538Z,0.00
2019-03-09T05:01:10.512Z,0.00
2019-03-09T05:02:10.501Z,0.00
2019-03-09T05:03:10.520Z,0.00
2019-03-09T05:04:10.501Z,0.00
2019-03-09T05:05:10.492Z,0.00
2019-03-09T05:06:10.467Z,0.00
2019-03-09T05:07:10.454Z,0.00
2019-03-09T05:08:10.448Z,0.00
2019-03-09T05:09:10.430Z,0.00
2019-03-09T05:10:10.448Z,0.00
2019-03-09T05:11:10.448Z,0.00
2019-03-09T05:12:10.434Z,0.00
2019-03-09T05:13:10.385Z,0.00
2019-03-09T05:14:10.372Z,0.00
2019-03-09T05:15:10.361Z,0.00
2019-03-09T05:16:10.369Z,0.00
2019-03-09T05:17:10.383Z,0.00
2019-03-09T05:18:10.347Z,0.00
2019-03-09T05:19:10.331Z,0.00
2019-03-09T05:20:10.310Z,0.00
2019-03-09T05:21:10.323Z,0.00
2019-03-09T05:22:10.320Z,0.00
2019-03-09T05:23:10.298Z,0.00
2019-03-09T05:24:10.293Z,0.00
2019-03-09T05:25:10.253Z,0.00
2019-03-09T05:26:10.297Z,0.00
2019-03-09T05:27:10.241Z,0.00
2019-03-09T05:28:10.225Z,0.00
2019-03-09T05:29:10.224Z,0.00
2019-03-09T05:30:10.200Z,4.00
2019-03-09T05:31:10.221Z,4.00
2019-03-09T05:32:10.217Z,4.00
2019-03-09T05:33:10.190Z,4.00
2019-03-09T05:34:10.168Z,4.00
2019-03-09T05:35:10.174Z,4.00
2019-03-09T05:36:10.161Z,8.00
2019-03-09T05:37:10.175Z,8.00
2019-03-09T05:38:10.173Z,8.00
2019-03-09T05:39:10.110Z,12.00
2019-03-09T05:40:10.148Z,12.00
2019-03-09T05:41:10.105Z,16.00
2019-03-09T05:42:10.070Z,20.00
2019-03-09T05:43:10.071Z,24.00
2019-03-09T05:44:10.062Z,32.00
2019-03-09T05:45:10.063Z,36.00
2019-03-09T05:46:10.059Z,40.00
2019-03-09T05:47:10.038Z,48.00
2019-03-09T05:48:10.006Z,52.00
2019-03-09T05:49:10.015Z,52.00
2019-03-09T05:50:09.989Z,60.00
2019-03-09T05:51:09.993Z,68.00
2019-03-09T05:52:10.000Z,72.00
2019-03-09T05:53:09.995Z,84.00
2019-03-09T05:54:09.972Z,96.00
2019-03-09T05:55:09.943Z,104.00
2019-03-09T05:56:09.931Z,116.00
2019-03-09T05:57:09.931Z,128.00
2019-03-09T05:58:09.938Z,144.00
2019-03-09T05:59:09.917Z,156.00
2019-03-09T06:00:09.890Z,172.00
2019-03-09T06:01:09.882Z,184.00
2019-03-09T06:02:09.859Z,208.00
2019-03-09T06:03:09.851Z,224.00
2019-03-09T06:04:09.871Z,236.00
2019-03-09T06:05:09.862Z,264.00
2019-03-09T06:06:09.866Z,300.00
2019-03-09T06:07:09.842Z,328.00
2019-03-09T06:08:09.804Z,352.00
2019-03-09T06:09:09.795Z,388.00
2019-03-09T06:10:09.782Z,428.00
2019-03-09T06:11:09.782Z,468.00
2019-03-09T06:12:09.770Z,496.00
2019-03-09T06:13:09.740Z,504.00
2019-03-09T06:14:09.745Z,520.00
2019-03-09T06:15:09.720Z,548.00
2019-03-09T06:16:09.756Z,588.00
2019-03-09T06:17:09.705Z,636.00
2019-03-09T06:18:09.718Z,684.00
2019-03-09T06:19:09.679Z,724.00
2019-03-09T06:20:09.664Z,764.00
2019-03-09T06:21:09.701Z,800.00
2019-03-09T06:22:09.647Z,824.00
2019-03-09T06:23:09.646Z,836.00
2019-03-09T06:24:09.627Z,924.00
2019-03-09T06:25:09.632Z,1032.00
2019-03-09T06:26:09.636Z,1104.00
2019-03-09T06:27:09.613Z,1164.00
2019-03-09T06:28:09.587Z,1204.00
2019-03-09T06:29:09.607Z,1224.00
2019-03-09T06:30:09.562Z,1288.00
2019-03-09T06:31:09.564Z,1364.00
2019-03-09T06:32:09.555Z,1468.00
2019-03-09T06:33:09.542Z,1652.00
2019-03-09T06:34:09.524Z,1756.00
2019-03-09T06:35:09.514Z,1744.00
2019-03-09T06:36:09.521Z,1764.00
2019-03-09T06:37:09.573Z,1808.00
2019-03-09T06:38:09.509Z,1856.00
2019-03-09T06:39:09.474Z,1888.00
2019-03-09T06:40:09.462Z,1848.00
2019-03-09T06:41:09.472Z,1872.00
2019-03-09T06:42:09.462Z,1884.00
2019-03-09T06:43:09.425Z,1916.00
2019-03-09T06:44:09.413Z,1992.00
2019-03-09T06:45:09.392Z,2100.00
2019-03-09T06:46:09.439Z,2156.00
2019-03-09T06:47:09.390Z,2216.00
2019-03-09T06:48:09.360Z,2380.00
2019-03-09T06:49:09.351Z,2536.00
2019-03-09T06:50:09.369Z,2776.00
2019-03-09T06:51:09.347Z,2920.00
2019-03-09T06:52:09.375Z,2972.00
2019-03-09T06:53:09.322Z,3064.00
2019-03-09T06:54:09.298Z,3152.00
2019-03-09T06:55:09.298Z,3328.00
2019-03-09T06:56:09.293Z,3448.00
2019-03-09T06:57:13.808Z,3604.00
2019-03-09T06:58:09.252Z,3648.00
2019-03-09T06:59:09.246Z,3656.00
2019-03-09T07:00:09.259Z,3580.00
2019-03-09T07:01:09.224Z,3520.00
2019-03-09T07:02:09.244Z,3512.00
2019-03-09T07:03:09.212Z,3612.00
2019-03-09T07:04:09.197Z,3724.00
2019-03-09T07:05:09.178Z,3928.00
2019-03-09T07:06:09.184Z,4312.00
2019-03-09T07:07:09.182Z,4724.00
2019-03-09T07:08:09.157Z,5164.00
2019-03-09T07:09:09.153Z,5388.00
2019-03-09T07:10:09.139Z,5740.00
2019-03-09T07:11:09.144Z,6188.00
2019-03-09T07:12:09.114Z,6312.00
2019-03-09T07:13:09.113Z,6384.00
2019-03-09T07:14:09.096Z,6168.00
2019-03-09T07:15:09.095Z,6408.00
2019-03-09T07:16:09.094Z,6672.00
2019-03-09T07:17:09.090Z,6872.00
2019-03-09T07:18:09.047Z,6864.00
2019-03-09T07:19:09.040Z,6924.00
2019-03-09T07:20:12.615Z,7296.00
2019-03-09T07:21:09.021Z,7012.00
2019-03-09T07:22:09.010Z,6704.00
2019-03-09T07:23:09.012Z,6724.00
2019-03-09T07:24:08.977Z,7012.00
2019-03-09T07:25:08.990Z,7616.00
2019-03-09T07:26:08.978Z,7924.00
2019-03-09T07:27:08.977Z,7900.00
2019-03-09T07:28:08.934Z,8624.00
2019-03-09T07:29:08.938Z,9344.00
2019-03-09T07:30:08.915Z,10100.00
2019-03-09T07:31:08.897Z,10536.00
2019-03-09T07:32:08.914Z,10684.00
2019-03-09T07:33:08.889Z,11124.00
2019-03-09T07:34:08.897Z,11588.00
2019-03-09T07:35:08.856Z,11728.00
2019-03-09T07:36:08.858Z,11636.00
2019-03-09T07:37:08.880Z,11772.00
2019-03-09T07:38:08.826Z,11564.00
2019-03-09T07:39:08.857Z,11024.00
2019-03-09T07:40:08.822Z,11272.00
2019-03-09T07:41:08.790Z,11564.00
2019-03-09T07:42:08.828Z,11572.00
2019-03-09T07:43:08.772Z,11812.00
2019-03-09T07:44:08.762Z,11724.00
2019-03-09T07:45:08.758Z,11716.00
2019-03-09T07:46:08.745Z,11880.00
2019-03-09T07:47:08.761Z,12296.00
2019-03-09T07:48:08.730Z,12488.00
2019-03-09T07:49:08.711Z,12596.00
2019-03-09T07:50:08.746Z,12404.00
2019-03-09T07:51:08.712Z,12648.00
2019-03-09T07:52:08.694Z,13024.00
2019-03-09T07:53:08.672Z,13524.00
2019-03-09T07:54:08.651Z,13904.00
2019-03-09T07:55:08.641Z,14160.00
2019-03-09T07:56:08.652Z,14208.00
2019-03-09T07:57:08.629Z,14408.00
2019-03-09T07:58:08.649Z,14664.00
2019-03-09T07:59:08.597Z,14620.00
2019-03-09T08:00:08.594Z,14500.00
2019-03-09T08:01:08.591Z,14664.00
2019-03-09T08:02:08.576Z,14612.00
2019-03-09T08:03:08.581Z,14592.00
2019-03-09T08:04:08.544Z,14780.00
2019-03-09T08:05:08.541Z,15120.00
2019-03-09T08:06:08.524Z,15140.00
2019-03-09T08:07:08.543Z,15000.00
2019-03-09T08:08:08.542Z,14792.00
2019-03-09T08:09:08.492Z,14728.00
2019-03-09T08:10:08.519Z,14468.00
2019-03-09T08:11:08.474Z,13712.00
2019-03-09T08:12:08.486Z,13792.00
2019-03-09T08:13:08.475Z,13688.00
2019-03-09T08:14:08.466Z,13192.00
2019-03-09T08:15:08.429Z,12460.00
2019-03-09T08:16:08.444Z,12628.00
2019-03-09T08:17:08.431Z,12776.00
2019-03-09T08:18:08.440Z,13620.00
2019-03-09T08:19:08.387Z,13700.00
2019-03-09T08:20:08.381Z,14324.00
2019-03-09T08:21:08.397Z,15056.00
2019-03-09T08:22:08.355Z,16272.00
2019-03-09T08:23:08.362Z,16324.00
2019-03-09T08:24:08.346Z,16112.00
2019-03-09T08:25:08.335Z,15944.00
2019-03-09T08:26:08.320Z,16640.00
2019-03-09T08:27:08.304Z,15580.00
2019-03-09T08:28:08.314Z,16768.00
2019-03-09T08:29:08.313Z,17600.00
2019-03-09T08:30:08.308Z,17088.00
2019-03-09T08:31:08.260Z,15472.00
2019-03-09T08:32:08.277Z,15396.00
2019-03-09T08:33:08.283Z,16832.00
2019-03-09T08:34:08.227Z,17056.00
2019-03-09T08:35:08.236Z,17408.00
2019-03-09T08:36:08.218Z,18048.00
2019-03-09T08:37:08.206Z,18304.00
2019-03-09T08:38:08.230Z,17792.00
2019-03-09T08:39:08.207Z,17792.00
2019-03-09T08:40:08.160Z,17664.00
2019-03-09T08:41:08.155Z,17120.00
2019-03-09T08:42:08.141Z,16896.00
2019-03-09T08:43:08.150Z,15920.00
2019-03-09T08:44:08.140Z,15800.00
2019-03-09T08:45:08.118Z,15860.00
2019-03-09T08:46:08.101Z,16544.00
2019-03-09T08:47:08.117Z,17760.00
2019-03-09T08:48:08.085Z,17056.00
2019-03-09T08:49:08.067Z,16896.00
2019-03-09T08:50:08.065Z,15968.00
2019-03-09T08:51:08.059Z,14796.00
2019-03-09T08:52:08.047Z,13272.00
2019-03-09T08:53:08.066Z,12420.00
2019-03-09T08:54:08.011Z,11600.00
2019-03-09T08:55:08.035Z,10736.00
2019-03-09T08:56:08.030Z,10740.00
2019-03-09T08:57:08.019Z,11952.00
2019-03-09T08:58:08.057Z,10444.00
2019-03-09T08:59:07.962Z,9520.00
2019-03-09T09:00:07.996Z,7900.00
2019-03-09T09:01:07.956Z,10152.00
2019-03-09T09:02:07.935Z,10444.00
2019-03-09T09:03:07.954Z,8880.00
2019-03-09T09:04:07.903Z,8596.00
2019-03-09T09:05:07.893Z,9132.00
2019-03-09T09:06:07.896Z,10160.00
2019-03-09T09:07:07.885Z,10180.00
2019-03-09T09:08:07.876Z,8580.00
2019-03-09T09:09:07.873Z,8124.00
2019-03-09T09:10:07.861Z,9684.00
2019-03-09T09:11:07.855Z,8464.00
2019-03-09T09:12:07.817Z,8460.00
2019-03-09T09:13:07.835Z,8476.00
2019-03-09T09:14:07.837Z,7196.00
2019-03-09T09:15:07.824Z,7716.00
2019-03-09T09:16:07.784Z,8016.00
2019-03-09T09:17:07.803Z,6920.00
2019-03-09T09:18:07.755Z,6584.00
2019-03-09T09:19:07.768Z,9252.00
2019-03-09T09:20:07.755Z,7532.00
2019-03-09T09:21:07.733Z,8948.00
2019-03-09T09:22:07.738Z,8604.00
2019-03-09T09:23:07.701Z,7596.00
2019-03-09T09:24:07.709Z,8248.00
2019-03-09T09:25:07.679Z,7704.00
2019-03-09T09:26:07.680Z,7520.00
2019-03-09T09:27:07.675Z,7824.00
2019-03-09T09:28:07.649Z,9300.00
2019-03-09T09:29:07.673Z,9792.00
2019-03-09T09:30:07.641Z,7488.00
2019-03-09T09:31:07.643Z,7732.00
2019-03-09T09:32:07.601Z,8980.00
2019-03-09T09:33:07.604Z,7468.00
2019-03-09T09:34:07.606Z,7852.00
2019-03-09T09:35:07.574Z,6724.00
2019-03-09T09:36:07.566Z,7368.00
2019-03-09T09:37:07.580Z,7504.00
2019-03-09T09:38:07.564Z,7616.00
2019-03-09T09:39:07.545Z,7048.00
2019-03-09T09:40:07.550Z,7900.00
2019-03-09T09:41:07.512Z,7540.00
2019-03-09T09:42:07.498Z,8836.00
2019-03-09T09:43:07.551Z,8344.00
2019-03-09T09:44:07.486Z,7620.00
2019-03-09T09:45:07.477Z,8276.00
2019-03-09T09:46:07.452Z,9984.00
2019-03-09T09:47:07.441Z,8556.00
2019-03-09T09:48:07.430Z,8548.00
2019-03-09T09:49:07.462Z,8556.00
2019-03-09T09:50:07.438Z,9456.00
2019-03-09T09:51:07.426Z,10388.00
2019-03-09T09:52:07.398Z,11508.00
2019-03-09T09:53:07.407Z,9856.00
2019-03-09T09:54:07.390Z,10432.00
2019-03-09T09:55:07.358Z,10368.00
2019-03-09T09:56:07.354Z,9860.00
2019-03-09T09:57:07.351Z,12248.00
2019-03-09T09:58:07.343Z,10456.00
2019-03-09T09:59:07.339Z,11308.00
2019-03-09T10:00:07.319Z,11856.00
2019-03-09T10:01:07.291Z,12208.00
2019-03-09T10:02:07.285Z,14528.00
2019-03-09T10:03:07.274Z,14008.00
2019-03-09T10:04:07.311Z,11600.00
2019-03-09T10:05:07.264Z,12908.00
2019-03-09T10:06:07.272Z,14228.00
2019-03-09T10:07:07.227Z,16020.00
2019-03-09T10:08:07.220Z,15916.00
2019-03-09T10:09:07.216Z,13856.00
2019-03-09T10:10:07.204Z,13736.00
2019-03-09T10:11:07.220Z,14568.00
2019-03-09T10:12:07.197Z,15064.00
2019-03-09T10:13:07.177Z,14140.00
2019-03-09T10:14:07.180Z,16120.00
2019-03-09T10:15:07.185Z,17536.00
2019-03-09T10:16:07.132Z,18848.00
2019-03-09T10:17:07.118Z,19936.00
2019-03-09T10:18:07.108Z,17472.00
2019-03-09T10:19:07.102Z,16416.00
2019-03-09T10:20:07.113Z,18464.00
2019-03-09T10:21:07.084Z,18432.00
2019-03-09T10:22:07.066Z,15544.00
2019-03-09T10:23:07.062Z,17248.00
2019-03-09T10:24:07.042Z,18176.00
2019-03-09T10:25:07.082Z,20192.00
2019-03-09T10:26:07.025Z,20128.00
2019-03-09T10:27:07.058Z,19680.00
2019-03-09T10:28:07.003Z,16416.00
2019-03-09T10:29:07.000Z,14964.00
2019-03-09T10:30:07.005Z,17696.00
2019-03-09T10:31:06.986Z,18880.00
2019-03-09T10:32:06.958Z,20192.00
2019-03-09T10:33:06.946Z,19936.00
2019-03-09T10:34:06.959Z,22048.00
2019-03-09T10:35:06.942Z,23584.00
2019-03-09T10:36:06.917Z,23680.00
2019-03-09T10:37:06.901Z,23072.00
2019-03-09T10:38:06.894Z,21088.00
2019-03-09T10:39:06.888Z,19872.00
2019-03-09T10:40:06.879Z,18176.00
2019-03-09T10:41:06.866Z,19296.00
2019-03-09T10:42:06.846Z,19104.00
2019-03-09T10:43:06.863Z,18304.00
2019-03-09T10:44:06.824Z,18112.00
2019-03-09T10:45:06.825Z,17184.00
2019-03-09T10:46:06.843Z,17344.00
2019-03-09T10:47:06.798Z,15620.00
2019-03-09T10:48:06.782Z,15360.00
2019-03-09T10:49:06.773Z,16364.00
2019-03-09T10:50:06.780Z,15944.00
2019-03-09T10:51:06.750Z,16832.00
2019-03-09T10:52:06.739Z,17344.00
2019-03-09T10:53:06.740Z,18208.00
2019-03-09T10:54:06.740Z,18368.00
2019-03-09T10:55:06.718Z,17152.00
2019-03-09T10:56:06.703Z,15532.00
2019-03-09T10:57:06.719Z,15248.00
2019-03-09T10:58:06.693Z,16080.00
2019-03-09T10:59:06.670Z,17184.00
2019-03-09T11:00:06.668Z,17376.00
2019-03-09T11:01:06.642Z,17952.00
2019-03-09T11:02:06.645Z,18944.00
2019-03-09T11:03:06.625Z,19936.00
2019-03-09T11:04:06.613Z,20160.00
2019-03-09T11:05:06.637Z,19040.00
2019-03-09T11:06:06.623Z,19392.00
2019-03-09T11:07:06.582Z,20352.00
2019-03-09T11:08:06.581Z,20864.00
2019-03-09T11:09:06.654Z,20928.00
2019-03-09T11:10:06.577Z,21344.00
2019-03-09T11:11:06.534Z,21632.00
2019-03-09T11:12:06.528Z,21216.00
2019-03-09T11:13:06.522Z,20960.00
2019-03-09T11:14:06.550Z,20704.00
2019-03-09T11:15:06.528Z,20768.00
2019-03-09T11:16:06.486Z,20832.00
2019-03-09T11:17:06.474Z,20096.00
2019-03-09T11:18:06.458Z,17088.00
2019-03-09T11:19:06.467Z,15160.00
2019-03-09T11:20:06.448Z,16736.00
2019-03-09T11:21:06.445Z,18976.00
2019-03-09T11:22:06.425Z,19136.00
2019-03-09T11:23:06.416Z,19072.00
2019-03-09T11:24:06.399Z,17152.00
2019-03-09T11:25:06.429Z,16512.00
2019-03-09T11:26:06.394Z,18912.00
2019-03-09T11:27:06.388Z,21312.00
2019-03-09T11:28:06.379Z,21376.00
2019-03-09T11:29:06.387Z,20000.00
2019-03-09T11:30:06.365Z,18240.00
2019-03-09T11:31:06.362Z,20128.00
2019-03-09T11:32:06.344Z,20736.00
2019-03-09T11:33:06.363Z,18944.00
2019-03-09T11:34:06.410Z,19200.00
2019-03-09T11:35:06.462Z,19840.00
2019-03-09T11:36:06.398Z,18912.00
2019-03-09T11:37:06.304Z,19296.00
2019-03-09T11:38:06.316Z,18400.00
2019-03-09T11:39:06.250Z,18784.00
2019-03-09T11:40:06.324Z,18240.00
2019-03-09T11:41:06.237Z,18816.00
2019-03-09T11:42:06.265Z,18304.00
2019-03-09T11:43:06.210Z,18880.00
2019-03-09T11:44:06.189Z,18752.00
2019-03-09T11:45:06.190Z,17056.00
2019-03-09T11:46:06.207Z,18400.00
2019-03-09T11:47:06.199Z,18016.00
2019-03-09T11:48:06.175Z,17952.00
2019-03-09T11:49:06.173Z,18272.00
2019-03-09T11:50:06.148Z,20032.00
2019-03-09T11:51:06.189Z,20480.00
2019-03-09T11:52:06.131Z,20192.00
2019-03-09T11:53:06.104Z,21440.00
2019-03-09T11:54:06.151Z,21408.00
2019-03-09T11:55:06.104Z,18272.00
2019-03-09T11:56:06.094Z,21184.00
2019-03-09T11:57:06.069Z,19840.00
2019-03-09T11:58:06.052Z,19968.00
2019-03-09T11:59:06.091Z,22720.00
2019-03-09T12:00:06.080Z,23968.00
2019-03-09T12:01:06.039Z,25056.00
2019-03-09T12:02:06.019Z,26528.00
2019-03-09T12:03:05.980Z,22496.00
2019-03-09T12:04:05.975Z,15132.00
2019-03-09T12:05:05.961Z,12720.00
2019-03-09T12:06:05.988Z,12440.00
2019-03-09T12:07:05.942Z,11232.00
2019-03-09T12:08:05.939Z,8084.00
2019-03-09T12:09:05.916Z,8768.00
2019-03-09T12:10:05.910Z,12984.00
2019-03-09T12:11:05.915Z,10660.00
2019-03-09T12:12:05.895Z,7360.00
2019-03-09T12:13:05.872Z,5496.00
2019-03-09T12:14:05.893Z,5476.00
2019-03-09T12:15:05.854Z,5540.00
2019-03-09T12:16:05.882Z,6236.00
2019-03-09T12:17:12.724Z,6616.00
2019-03-09T12:18:06.840Z,7260.00
2019-03-09T12:19:05.821Z,6372.00
2019-03-09T12:20:05.862Z,6176.00
2019-03-09T12:21:05.798Z,6480.00
2019-03-09T12:22:05.799Z,5788.00
2019-03-09T12:23:05.787Z,4880.00
2019-03-09T12:24:15.864Z,5808.00
2019-03-09T12:25:06.744Z,5728.00
2019-03-09T12:26:05.753Z,4536.00
2019-03-09T12:27:05.723Z,5036.00
2019-03-09T12:28:05.742Z,5188.00
2019-03-09T12:29:05.699Z,5388.00
2019-03-09T12:30:05.720Z,4812.00
2019-03-09T12:31:05.732Z,4984.00